sensor_id;sensor_type;location;lat;lon;timestamp;temperature;humidity
57833;DHT22;43667;53.036;6.740;2023-08-06T00:00:21;14.10;99.90
57833;DHT22;43667;53.036;6.740;2023-08-06T00:02:46;14.10;99.90
57833;DHT22;43667;53.036;6.740;2023-08-06T00:05:12;14.10;99.90
57833;DHT22;43667;53.036;6.740;2023-08-06T00:07:38;14.10;99.90
57833;DHT22;43667;53.036;6.740;2023-08-06T00:10:04;14.10;99.90
57833;DHT22;43667;53.036;6.740;2023-08-06T00:12:29;14.20;99.90
57833;DHT22;43667;53.036;6.740;2023-08-06T00:14:55;14.00;99.90
57833;DHT22;43667;53.036;6.740;2023-08-06T00:17:21;14.00;99.90
57833;DHT22;43667;53.036;6.740;2023-08-06T00:19:46;14.00;99.90
57833;DHT22;43667;53.036;6.740;2023-08-06T00:22:12;14.00;99.90
57833;DHT22;43667;53.036;6.740;2023-08-06T00:24:37;14.10;99.90
57833;DHT22;43667;53.036;6.740;2023-08-06T00:27:03;14.10;99.90
57833;DHT22;43667;53.036;6.740;2023-08-06T00:29:29;14.00;99.90
57833;DHT22;43667;53.036;6.740;2023-08-06T00:31:54;14.00;99.90
57833;DHT22;43667;53.036;6.740;2023-08-06T00:34:20;14.00;99.90
57833;DHT22;43667;53.036;6.740;2023-08-06T00:36:46;14.00;99.90
57833;DHT22;43667;53.036;6.740;2023-08-06T00:39:11;13.90;99.90
57833;DHT22;43667;53.036;6.740;2023-08-06T00:41:37;14.00;99.90
57833;DHT22;43667;53.036;6.740;2023-08-06T00:44:03;14.00;99.90
57833;DHT22;43667;53.036;6.740;2023-08-06T00:46:28;14.00;99.90
57833;DHT22;43667;53.036;6.740;2023-08-06T00:48:55;14.00;99.90
57833;DHT22;43667;53.036;6.740;2023-08-06T00:51:22;14.00;99.90
57833;DHT22;43667;53.036;6.740;2023-08-06T00:53:49;14.00;99.90
57833;DHT22;43667;53.036;6.740;2023-08-06T00:56:15;14.00;99.90
57833;DHT22;43667;53.036;6.740;2023-08-06T00:58:41;14.00;99.90
57833;DHT22;43667;53.036;6.740;2023-08-06T01:01:07;14.00;99.90
57833;DHT22;43667;53.036;6.740;2023-08-06T01:03:32;14.00;99.90
57833;DHT22;43667;53.036;6.740;2023-08-06T01:05:58;14.10;99.90
57833;DHT22;43667;53.036;6.740;2023-08-06T01:14:02;14.10;99.90
57833;DHT22;43667;53.036;6.740;2023-08-06T01:16:30;14.00;99.90
57833;DHT22;43667;53.036;6.740;2023-08-06T01:21:24;14.20;99.90
57833;DHT22;43667;53.036;6.740;2023-08-06T01:23:50;14.10;99.90
57833;DHT22;43667;53.036;6.740;2023-08-06T01:26:38;14.10;99.90
57833;DHT22;43667;53.036;6.740;2023-08-06T01:29:22;14.10;99.90
57833;DHT22;43667;53.036;6.740;2023-08-06T01:31:51;14.10;99.90
57833;DHT22;43667;53.036;6.740;2023-08-06T01:34:21;14.10;99.90
57833;DHT22;43667;53.036;6.740;2023-08-06T01:36:47;14.10;99.90
57833;DHT22;43667;53.036;6.740;2023-08-06T01:39:13;14.00;99.90
57833;DHT22;43667;53.036;6.740;2023-08-06T01:41:39;14.00;99.90
57833;DHT22;43667;53.036;6.740;2023-08-06T01:44:05;14.00;99.90
57833;DHT22;43667;53.036;6.740;2023-08-06T01:46:30;14.50;99.90
57833;DHT22;43667;53.036;6.740;2023-08-06T01:48:56;14.00;99.90
57833;DHT22;43667;53.036;6.740;2023-08-06T01:51:22;14.00;99.90
57833;DHT22;43667;53.036;6.740;2023-08-06T01:53:47;14.00;99.90
57833;DHT22;43667;53.036;6.740;2023-08-06T01:56:13;14.00;99.90
57833;DHT22;43667;53.036;6.740;2023-08-06T01:58:38;14.00;99.90
57833;DHT22;43667;53.036;6.740;2023-08-06T02:01:04;14.00;99.90
57833;DHT22;43667;53.036;6.740;2023-08-06T02:03:31;14.00;99.90
57833;DHT22;43667;53.036;6.740;2023-08-06T02:05:56;14.00;99.90
57833;DHT22;43667;53.036;6.740;2023-08-06T02:08:22;14.00;99.90
57833;DHT22;43667;53.036;6.740;2023-08-06T02:10:47;14.00;99.90
57833;DHT22;43667;53.036;6.740;2023-08-06T02:13:13;14.00;99.90
57833;DHT22;43667;53.036;6.740;2023-08-06T02:15:46;14.00;99.90
57833;DHT22;43667;53.036;6.740;2023-08-06T02:18:13;14.10;99.90
57833;DHT22;43667;53.036;6.740;2023-08-06T02:20:40;14.10;99.90
57833;DHT22;43667;53.036;6.740;2023-08-06T02:23:06;14.00;99.90
57833;DHT22;43667;53.036;6.740;2023-08-06T02:25:31;14.70;99.90
57833;DHT22;43667;53.036;6.740;2023-08-06T02:27:57;14.10;99.90
57833;DHT22;43667;53.036;6.740;2023-08-06T02:30:22;14.00;99.90
57833;DHT22;43667;53.036;6.740;2023-08-06T02:32:48;14.00;99.90
57833;DHT22;43667;53.036;6.740;2023-08-06T02:35:13;14.10;99.90
57833;DHT22;43667;53.036;6.740;2023-08-06T02:37:39;14.50;99.90
57833;DHT22;43667;53.036;6.740;2023-08-06T02:40:05;14.10;99.90
57833;DHT22;43667;53.036;6.740;2023-08-06T02:42:31;14.00;99.90
57833;DHT22;43667;53.036;6.740;2023-08-06T02:44:56;14.20;99.90
57833;DHT22;43667;53.036;6.740;2023-08-06T02:47:22;14.10;99.90
57833;DHT22;43667;53.036;6.740;2023-08-06T02:49:48;14.10;99.90
57833;DHT22;43667;53.036;6.740;2023-08-06T02:52:13;14.30;99.90
57833;DHT22;43667;53.036;6.740;2023-08-06T02:54:39;14.30;99.90
57833;DHT22;43667;53.036;6.740;2023-08-06T02:57:05;14.20;99.90
57833;DHT22;43667;53.036;6.740;2023-08-06T02:59:31;14.00;99.90
57833;DHT22;43667;53.036;6.740;2023-08-06T03:01:57;14.10;99.90
57833;DHT22;43667;53.036;6.740;2023-08-06T03:04:23;14.30;99.90
57833;DHT22;43667;53.036;6.740;2023-08-06T03:06:51;14.50;99.90
57833;DHT22;43667;53.036;6.740;2023-08-06T03:09:18;14.10;99.90
57833;DHT22;43667;53.036;6.740;2023-08-06T03:11:43;14.50;99.90
57833;DHT22;43667;53.036;6.740;2023-08-06T03:14:09;14.20;99.90
57833;DHT22;43667;53.036;6.740;2023-08-06T03:16:35;14.30;99.90
57833;DHT22;43667;53.036;6.740;2023-08-06T03:19:01;14.00;99.90
57833;DHT22;43667;53.036;6.740;2023-08-06T03:21:26;14.40;99.90
57833;DHT22;43667;53.036;6.740;2023-08-06T03:40:54;14.00;99.90
57833;DHT22;43667;53.036;6.740;2023-08-06T03:43:20;14.20;99.90
57833;DHT22;43667;53.036;6.740;2023-08-06T03:45:45;14.20;99.90
57833;DHT22;43667;53.036;6.740;2023-08-06T03:48:11;13.80;99.90
57833;DHT22;43667;53.036;6.740;2023-08-06T03:50:36;13.90;99.90
57833;DHT22;43667;53.036;6.740;2023-08-06T03:53:03;13.80;99.90
57833;DHT22;43667;53.036;6.740;2023-08-06T03:55:29;14.10;99.90
57833;DHT22;43667;53.036;6.740;2023-08-06T03:57:54;13.60;99.90
57833;DHT22;43667;53.036;6.740;2023-08-06T04:00:20;14.00;99.90
57833;DHT22;43667;53.036;6.740;2023-08-06T04:02:45;13.80;99.90
57833;DHT22;43667;53.036;6.740;2023-08-06T04:05:11;13.70;99.90
57833;DHT22;43667;53.036;6.740;2023-08-06T04:07:37;13.60;99.90
57833;DHT22;43667;53.036;6.740;2023-08-06T04:10:04;13.70;99.90
57833;DHT22;43667;53.036;6.740;2023-08-06T04:12:30;13.50;99.90
57833;DHT22;43667;53.036;6.740;2023-08-06T04:14:58;13.80;99.90
57833;DHT22;43667;53.036;6.740;2023-08-06T04:17:24;13.40;99.90
57833;DHT22;43667;53.036;6.740;2023-08-06T04:19:51;13.60;99.90
57833;DHT22;43667;53.036;6.740;2023-08-06T04:22:18;13.50;99.90
57833;DHT22;43667;53.036;6.740;2023-08-06T04:24:44;13.50;99.90
57833;DHT22;43667;53.036;6.740;2023-08-06T04:27:10;13.40;99.90
57833;DHT22;43667;53.036;6.740;2023-08-06T04:29:36;13.30;99.90
57833;DHT22;43667;53.036;6.740;2023-08-06T04:32:05;13.50;99.90
57833;DHT22;43667;53.036;6.740;2023-08-06T04:34:31;13.40;99.90
57833;DHT22;43667;53.036;6.740;2023-08-06T04:36:57;13.50;99.90
57833;DHT22;43667;53.036;6.740;2023-08-06T04:39:22;13.40;99.90
57833;DHT22;43667;53.036;6.740;2023-08-06T04:41:48;13.40;99.90
57833;DHT22;43667;53.036;6.740;2023-08-06T04:44:13;13.60;99.90
57833;DHT22;43667;53.036;6.740;2023-08-06T04:46:39;13.30;99.90
57833;DHT22;43667;53.036;6.740;2023-08-06T04:49:04;13.20;99.90
57833;DHT22;43667;53.036;6.740;2023-08-06T04:51:30;13.30;99.90
57833;DHT22;43667;53.036;6.740;2023-08-06T04:53:57;13.60;99.90
57833;DHT22;43667;53.036;6.740;2023-08-06T04:56:22;13.50;99.90
57833;DHT22;43667;53.036;6.740;2023-08-06T04:58:48;13.50;99.90
57833;DHT22;43667;53.036;6.740;2023-08-06T05:01:14;13.60;99.90
57833;DHT22;43667;53.036;6.740;2023-08-06T05:03:42;13.60;99.90
57833;DHT22;43667;53.036;6.740;2023-08-06T05:06:08;13.50;99.90
57833;DHT22;43667;53.036;6.740;2023-08-06T05:08:33;13.50;99.90
57833;DHT22;43667;53.036;6.740;2023-08-06T05:10:59;13.30;99.90
57833;DHT22;43667;53.036;6.740;2023-08-06T05:13:25;13.80;99.90
57833;DHT22;43667;53.036;6.740;2023-08-06T05:15:51;13.70;99.90
57833;DHT22;43667;53.036;6.740;2023-08-06T05:18:18;13.60;99.90
57833;DHT22;43667;53.036;6.740;2023-08-06T05:20:44;13.50;99.90
57833;DHT22;43667;53.036;6.740;2023-08-06T05:23:10;13.30;99.90
57833;DHT22;43667;53.036;6.740;2023-08-06T05:25:36;13.50;99.90
57833;DHT22;43667;53.036;6.740;2023-08-06T05:28:02;13.50;99.90
57833;DHT22;43667;53.036;6.740;2023-08-06T05:30:28;14.30;99.90
57833;DHT22;43667;53.036;6.740;2023-08-06T05:32:54;13.70;99.90
57833;DHT22;43667;53.036;6.740;2023-08-06T05:35:21;13.70;99.90
57833;DHT22;43667;53.036;6.740;2023-08-06T05:37:47;13.80;99.90
57833;DHT22;43667;53.036;6.740;2023-08-06T05:40:13;14.00;99.90
57833;DHT22;43667;53.036;6.740;2023-08-06T05:42:40;14.10;99.90
57833;DHT22;43667;53.036;6.740;2023-08-06T05:45:06;14.20;99.90
57833;DHT22;43667;53.036;6.740;2023-08-06T05:49:57;14.60;99.90
57833;DHT22;43667;53.036;6.740;2023-08-06T05:52:23;14.70;99.90
57833;DHT22;43667;53.036;6.740;2023-08-06T05:54:48;14.80;99.90
57833;DHT22;43667;53.036;6.740;2023-08-06T05:57:14;14.90;99.90
57833;DHT22;43667;53.036;6.740;2023-08-06T05:59:40;15.00;99.90
57833;DHT22;43667;53.036;6.740;2023-08-06T06:02:06;15.10;99.90
57833;DHT22;43667;53.036;6.740;2023-08-06T06:04:32;15.20;99.90
57833;DHT22;43667;53.036;6.740;2023-08-06T06:06:57;15.30;99.90
57833;DHT22;43667;53.036;6.740;2023-08-06T06:09:23;15.40;99.90
57833;DHT22;43667;53.036;6.740;2023-08-06T06:11:48;15.50;99.90
57833;DHT22;43667;53.036;6.740;2023-08-06T06:14:18;15.50;99.90
57833;DHT22;43667;53.036;6.740;2023-08-06T06:16:44;15.50;99.90
57833;DHT22;43667;53.036;6.740;2023-08-06T06:19:11;15.50;99.90
57833;DHT22;43667;53.036;6.740;2023-08-06T06:21:37;15.50;99.90
57833;DHT22;43667;53.036;6.740;2023-08-06T06:24:04;15.50;99.90
57833;DHT22;43667;53.036;6.740;2023-08-06T06:26:30;15.50;99.90
57833;DHT22;43667;53.036;6.740;2023-08-06T06:28:56;15.50;99.90
57833;DHT22;43667;53.036;6.740;2023-08-06T06:31:22;15.60;99.90
57833;DHT22;43667;53.036;6.740;2023-08-06T06:33:47;15.90;99.90
57833;DHT22;43667;53.036;6.740;2023-08-06T06:36:13;15.70;99.90
57833;DHT22;43667;53.036;6.740;2023-08-06T06:38:38;16.00;99.90
57833;DHT22;43667;53.036;6.740;2023-08-06T06:41:04;15.80;99.90
57833;DHT22;43667;53.036;6.740;2023-08-06T06:43:30;16.00;99.90
57833;DHT22;43667;53.036;6.740;2023-08-06T06:45:57;16.20;99.90
57833;DHT22;43667;53.036;6.740;2023-08-06T06:48:24;16.00;99.90
57833;DHT22;43667;53.036;6.740;2023-08-06T06:50:50;15.70;99.90
57833;DHT22;43667;53.036;6.740;2023-08-06T06:53:16;15.90;99.90
57833;DHT22;43667;53.036;6.740;2023-08-06T06:55:41;16.30;99.90
57833;DHT22;43667;53.036;6.740;2023-08-06T06:58:07;16.10;99.90
57833;DHT22;43667;53.036;6.740;2023-08-06T07:00:32;16.70;99.90
57833;DHT22;43667;53.036;6.740;2023-08-06T07:03:00;15.80;99.90
57833;DHT22;43667;53.036;6.740;2023-08-06T07:05:26;16.20;99.90
57833;DHT22;43667;53.036;6.740;2023-08-06T07:07:52;16.50;99.90
57833;DHT22;43667;53.036;6.740;2023-08-06T07:10:18;16.20;99.90
57833;DHT22;43667;53.036;6.740;2023-08-06T07:12:43;16.80;99.90
57833;DHT22;43667;53.036;6.740;2023-08-06T07:20:02;16.60;99.90
57833;DHT22;43667;53.036;6.740;2023-08-06T07:22:28;16.40;99.90
57833;DHT22;43667;53.036;6.740;2023-08-06T07:32:14;17.00;99.90
57833;DHT22;43667;53.036;6.740;2023-08-06T07:34:39;16.70;99.90
57833;DHT22;43667;53.036;6.740;2023-08-06T07:37:05;16.90;99.90
57833;DHT22;43667;53.036;6.740;2023-08-06T07:39:31;16.80;99.90
57833;DHT22;43667;53.036;6.740;2023-08-06T07:41:56;16.90;99.90
57833;DHT22;43667;53.036;6.740;2023-08-06T07:44:22;17.40;99.90
57833;DHT22;43667;53.036;6.740;2023-08-06T07:46:49;17.10;99.90
57833;DHT22;43667;53.036;6.740;2023-08-06T07:49:14;17.20;99.90
57833;DHT22;43667;53.036;6.740;2023-08-06T07:51:40;17.40;99.90
57833;DHT22;43667;53.036;6.740;2023-08-06T08:16:01;18.10;99.90
57833;DHT22;43667;53.036;6.740;2023-08-06T08:18:27;18.30;99.90
57833;DHT22;43667;53.036;6.740;2023-08-06T08:20:53;18.50;99.90
57833;DHT22;43667;53.036;6.740;2023-08-06T08:23:18;18.50;99.90
57833;DHT22;43667;53.036;6.740;2023-08-06T08:25:44;18.50;99.90
57833;DHT22;43667;53.036;6.740;2023-08-06T08:28:09;18.60;99.90
57833;DHT22;43667;53.036;6.740;2023-08-06T08:30:35;18.60;99.90
57833;DHT22;43667;53.036;6.740;2023-08-06T08:33:00;18.70;99.90
57833;DHT22;43667;53.036;6.740;2023-08-06T08:35:26;18.70;99.90
57833;DHT22;43667;53.036;6.740;2023-08-06T08:37:52;18.80;99.90
57833;DHT22;43667;53.036;6.740;2023-08-06T08:40:18;18.90;99.90
57833;DHT22;43667;53.036;6.740;2023-08-06T08:42:43;19.00;99.90
57833;DHT22;43667;53.036;6.740;2023-08-06T08:45:14;19.00;99.90
57833;DHT22;43667;53.036;6.740;2023-08-06T08:47:43;19.20;99.90
57833;DHT22;43667;53.036;6.740;2023-08-06T08:52:38;19.70;99.90
57833;DHT22;43667;53.036;6.740;2023-08-06T08:55:05;19.90;99.90
57833;DHT22;43667;53.036;6.740;2023-08-06T08:57:32;20.10;99.90
57833;DHT22;43667;53.036;6.740;2023-08-06T08:59:57;20.20;99.90
57833;DHT22;43667;53.036;6.740;2023-08-06T09:02:28;20.80;99.90
57833;DHT22;43667;53.036;6.740;2023-08-06T09:14:43;20.40;99.90
57833;DHT22;43667;53.036;6.740;2023-08-06T09:17:09;20.50;99.90
57833;DHT22;43667;53.036;6.740;2023-08-06T09:19:42;20.50;99.90
57833;DHT22;43667;53.036;6.740;2023-08-06T09:22:12;20.50;99.90
57833;DHT22;43667;53.036;6.740;2023-08-06T09:24:42;20.60;99.90
57833;DHT22;43667;53.036;6.740;2023-08-06T09:27:12;20.30;99.90
57833;DHT22;43667;53.036;6.740;2023-08-06T09:29:45;21.30;99.90
57833;DHT22;43667;53.036;6.740;2023-08-06T09:32:12;21.10;99.90
57833;DHT22;43667;53.036;6.740;2023-08-06T09:34:45;21.40;99.90
57833;DHT22;43667;53.036;6.740;2023-08-06T09:37:11;21.20;99.90
57833;DHT22;43667;53.036;6.740;2023-08-06T09:39:38;21.20;99.90
57833;DHT22;43667;53.036;6.740;2023-08-06T09:42:04;21.30;99.90
57833;DHT22;43667;53.036;6.740;2023-08-06T09:44:32;21.50;99.90
57833;DHT22;43667;53.036;6.740;2023-08-06T09:46:59;21.60;99.90
57833;DHT22;43667;53.036;6.740;2023-08-06T09:52:05;21.80;99.90
57833;DHT22;43667;53.036;6.740;2023-08-06T09:54:32;21.80;99.90
57833;DHT22;43667;53.036;6.740;2023-08-06T09:56:59;21.90;99.90
57833;DHT22;43667;53.036;6.740;2023-08-06T09:59:26;21.90;99.90
57833;DHT22;43667;53.036;6.740;2023-08-06T10:01:54;22.10;99.90
57833;DHT22;43667;53.036;6.740;2023-08-06T10:04:20;22.20;99.90
57833;DHT22;43667;53.036;6.740;2023-08-06T10:06:47;22.30;99.90
57833;DHT22;43667;53.036;6.740;2023-08-06T10:09:15;22.40;99.90
57833;DHT22;43667;53.036;6.740;2023-08-06T10:11:42;22.40;99.90
57833;DHT22;43667;53.036;6.740;2023-08-06T10:14:28;22.50;99.90
57833;DHT22;43667;53.036;6.740;2023-08-06T10:16:59;22.40;99.90
57833;DHT22;43667;53.036;6.740;2023-08-06T10:19:25;22.50;99.90
57833;DHT22;43667;53.036;6.740;2023-08-06T10:22:11;22.70;99.90
57833;DHT22;43667;53.036;6.740;2023-08-06T10:24:50;22.60;99.90
57833;DHT22;43667;53.036;6.740;2023-08-06T10:30:30;22.50;99.90
57833;DHT22;43667;53.036;6.740;2023-08-06T10:33:01;22.60;99.90
57833;DHT22;43667;53.036;6.740;2023-08-06T10:35:38;22.70;99.90
57833;DHT22;43667;53.036;6.740;2023-08-06T10:38:09;22.70;99.90
57833;DHT22;43667;53.036;6.740;2023-08-06T10:40:36;22.80;99.90
57833;DHT22;43667;53.036;6.740;2023-08-06T10:43:05;22.60;99.90
57833;DHT22;43667;53.036;6.740;2023-08-06T10:45:37;22.50;99.90
57833;DHT22;43667;53.036;6.740;2023-08-06T10:48:03;22.30;99.90
57833;DHT22;43667;53.036;6.740;2023-08-06T10:50:29;22.20;99.90
57833;DHT22;43667;53.036;6.740;2023-08-06T10:52:57;22.10;99.90
57833;DHT22;43667;53.036;6.740;2023-08-06T10:55:28;22.00;99.90
57833;DHT22;43667;53.036;6.740;2023-08-06T10:57:55;22.00;99.90
57833;DHT22;43667;53.036;6.740;2023-08-06T11:00:22;22.00;99.90
57833;DHT22;43667;53.036;6.740;2023-08-06T11:02:49;22.00;99.90
57833;DHT22;43667;53.036;6.740;2023-08-06T11:05:15;21.80;99.90
57833;DHT22;43667;53.036;6.740;2023-08-06T11:07:41;21.70;99.90
57833;DHT22;43667;53.036;6.740;2023-08-06T11:10:09;21.80;99.90
57833;DHT22;43667;53.036;6.740;2023-08-06T11:12:35;21.70;99.90
57833;DHT22;43667;53.036;6.740;2023-08-06T11:15:02;21.70;99.90
57833;DHT22;43667;53.036;6.740;2023-08-06T11:17:29;21.80;99.90
57833;DHT22;43667;53.036;6.740;2023-08-06T11:19:56;21.60;99.90
57833;DHT22;43667;53.036;6.740;2023-08-06T11:22:22;21.60;99.90
57833;DHT22;43667;53.036;6.740;2023-08-06T11:24:50;21.60;99.90
57833;DHT22;43667;53.036;6.740;2023-08-06T11:27:17;21.60;99.90
57833;DHT22;43667;53.036;6.740;2023-08-06T11:29:44;21.80;99.90
57833;DHT22;43667;53.036;6.740;2023-08-06T11:32:10;21.40;99.90
57833;DHT22;43667;53.036;6.740;2023-08-06T11:34:39;21.40;99.90
57833;DHT22;43667;53.036;6.740;2023-08-06T11:37:08;21.30;99.90
57833;DHT22;43667;53.036;6.740;2023-08-06T11:39:34;21.40;99.90
57833;DHT22;43667;53.036;6.740;2023-08-06T11:42:07;21.30;99.90
57833;DHT22;43667;53.036;6.740;2023-08-06T11:44:35;21.50;99.90
57833;DHT22;43667;53.036;6.740;2023-08-06T11:47:03;21.60;99.90
57833;DHT22;43667;53.036;6.740;2023-08-06T11:52:23;22.10;99.90
57833;DHT22;43667;53.036;6.740;2023-08-06T11:55:06;21.70;99.90
57833;DHT22;43667;53.036;6.740;2023-08-06T11:57:34;21.80;99.90
57833;DHT22;43667;53.036;6.740;2023-08-06T12:00:05;21.90;99.90
57833;DHT22;43667;53.036;6.740;2023-08-06T12:02:32;22.10;99.90
57833;DHT22;43667;53.036;6.740;2023-08-06T12:07:45;22.90;99.90
57833;DHT22;43667;53.036;6.740;2023-08-06T12:10:15;23.20;99.90
57833;DHT22;43667;53.036;6.740;2023-08-06T12:12:41;23.50;99.90
57833;DHT22;43667;53.036;6.740;2023-08-06T12:15:09;23.50;99.60
57833;DHT22;43667;53.036;6.740;2023-08-06T12:17:35;23.50;97.80
57833;DHT22;43667;53.036;6.740;2023-08-06T12:20:02;23.60;97.60
57833;DHT22;43667;53.036;6.740;2023-08-06T12:22:29;23.70;97.00
57833;DHT22;43667;53.036;6.740;2023-08-06T12:25:01;23.90;97.50
57833;DHT22;43667;53.036;6.740;2023-08-06T12:27:29;24.20;96.20
57833;DHT22;43667;53.036;6.740;2023-08-06T12:29:54;23.80;94.80
57833;DHT22;43667;53.036;6.740;2023-08-06T12:32:20;23.50;96.20
57833;DHT22;43667;53.036;6.740;2023-08-06T12:34:47;23.30;95.10
57833;DHT22;43667;53.036;6.740;2023-08-06T12:37:13;23.40;94.40
57833;DHT22;43667;53.036;6.740;2023-08-06T12:39:38;23.40;94.90
57833;DHT22;43667;53.036;6.740;2023-08-06T12:42:05;23.70;94.30
57833;DHT22;43667;53.036;6.740;2023-08-06T12:44:31;24.10;93.40
57833;DHT22;43667;53.036;6.740;2023-08-06T12:46:57;24.30;90.80
57833;DHT22;43667;53.036;6.740;2023-08-06T12:49:24;24.40;90.80
57833;DHT22;43667;53.036;6.740;2023-08-06T12:51:52;24.40;91.30
57833;DHT22;43667;53.036;6.740;2023-08-06T12:54:19;24.50;89.40
57833;DHT22;43667;53.036;6.740;2023-08-06T12:56:45;24.50;88.20
57833;DHT22;43667;53.036;6.740;2023-08-06T12:59:11;24.50;85.60
57833;DHT22;43667;53.036;6.740;2023-08-06T13:01:38;24.30;86.60
57833;DHT22;43667;53.036;6.740;2023-08-06T13:04:04;24.30;86.20
57833;DHT22;43667;53.036;6.740;2023-08-06T13:06:29;24.30;80.40
57833;DHT22;43667;53.036;6.740;2023-08-06T13:08:59;24.50;82.30
57833;DHT22;43667;53.036;6.740;2023-08-06T13:11:24;24.50;80.40
57833;DHT22;43667;53.036;6.740;2023-08-06T13:13:50;24.80;76.80
57833;DHT22;43667;53.036;6.740;2023-08-06T13:16:15;24.80;70.90
57833;DHT22;43667;53.036;6.740;2023-08-06T13:18:41;24.80;69.30
57833;DHT22;43667;53.036;6.740;2023-08-06T13:21:07;24.80;69.10
57833;DHT22;43667;53.036;6.740;2023-08-06T13:23:32;24.70;71.50
57833;DHT22;43667;53.036;6.740;2023-08-06T13:25:58;24.40;76.20
57833;DHT22;43667;53.036;6.740;2023-08-06T13:28:24;24.10;76.40
57833;DHT22;43667;53.036;6.740;2023-08-06T13:30:49;24.10;81.40
57833;DHT22;43667;53.036;6.740;2023-08-06T13:33:15;24.20;85.30
57833;DHT22;43667;53.036;6.740;2023-08-06T13:35:41;24.40;84.80
57833;DHT22;43667;53.036;6.740;2023-08-06T13:38:06;24.30;85.50
57833;DHT22;43667;53.036;6.740;2023-08-06T13:40:33;24.20;87.80
57833;DHT22;43667;53.036;6.740;2023-08-06T13:42:59;24.00;90.20
57833;DHT22;43667;53.036;6.740;2023-08-06T13:45:25;23.90;90.40
57833;DHT22;43667;53.036;6.740;2023-08-06T13:47:51;23.80;90.20
57833;DHT22;43667;53.036;6.740;2023-08-06T13:50:17;23.70;91.20
57833;DHT22;43667;53.036;6.740;2023-08-06T13:52:42;23.60;92.40
57833;DHT22;43667;53.036;6.740;2023-08-06T13:55:08;23.50;94.00
57833;DHT22;43667;53.036;6.740;2023-08-06T13:57:34;23.40;94.70
57833;DHT22;43667;53.036;6.740;2023-08-06T14:00:00;23.20;95.40
57833;DHT22;43667;53.036;6.740;2023-08-06T14:02:26;23.10;95.50
57833;DHT22;43667;53.036;6.740;2023-08-06T14:04:52;22.90;95.90
57833;DHT22;43667;53.036;6.740;2023-08-06T14:07:19;22.80;96.80
57833;DHT22;43667;53.036;6.740;2023-08-06T14:09:45;22.70;97.50
57833;DHT22;43667;53.036;6.740;2023-08-06T14:12:12;22.50;97.90
57833;DHT22;43667;53.036;6.740;2023-08-06T14:14:38;22.20;97.70
57833;DHT22;43667;53.036;6.740;2023-08-06T14:17:03;22.10;98.90
57833;DHT22;43667;53.036;6.740;2023-08-06T14:19:29;22.10;99.50
57833;DHT22;43667;53.036;6.740;2023-08-06T14:21:55;22.10;99.80
57833;DHT22;43667;53.036;6.740;2023-08-06T14:24:21;22.10;99.90
57833;DHT22;43667;53.036;6.740;2023-08-06T14:26:46;22.10;99.90
57833;DHT22;43667;53.036;6.740;2023-08-06T14:29:12;22.20;99.90
57833;DHT22;43667;53.036;6.740;2023-08-06T14:31:39;22.20;99.90
57833;DHT22;43667;53.036;6.740;2023-08-06T14:34:06;22.10;99.90
57833;DHT22;43667;53.036;6.740;2023-08-06T14:36:32;22.10;99.90
57833;DHT22;43667;53.036;6.740;2023-08-06T14:38:57;22.00;99.90
57833;DHT22;43667;53.036;6.740;2023-08-06T14:41:23;22.00;99.90
57833;DHT22;43667;53.036;6.740;2023-08-06T14:43:50;22.00;99.90
57833;DHT22;43667;53.036;6.740;2023-08-06T14:46:15;22.00;99.90
57833;DHT22;43667;53.036;6.740;2023-08-06T14:48:41;21.90;99.90
57833;DHT22;43667;53.036;6.740;2023-08-06T14:53:33;21.60;99.90
57833;DHT22;43667;53.036;6.740;2023-08-06T14:55:59;21.30;99.90
57833;DHT22;43667;53.036;6.740;2023-08-06T14:58:28;21.40;99.90
57833;DHT22;43667;53.036;6.740;2023-08-06T15:00:53;21.90;99.90
57833;DHT22;43667;53.036;6.740;2023-08-06T15:03:19;22.20;99.90
57833;DHT22;43667;53.036;6.740;2023-08-06T15:05:47;22.60;99.90
57833;DHT22;43667;53.036;6.740;2023-08-06T15:08:13;23.30;99.90
57833;DHT22;43667;53.036;6.740;2023-08-06T15:10:39;23.30;99.90
57833;DHT22;43667;53.036;6.740;2023-08-06T15:13:04;23.30;96.50
57833;DHT22;43667;53.036;6.740;2023-08-06T15:15:30;23.40;98.00
57833;DHT22;43667;53.036;6.740;2023-08-06T15:17:56;23.60;97.70
57833;DHT22;43667;53.036;6.740;2023-08-06T15:20:23;23.70;96.40
57833;DHT22;43667;53.036;6.740;2023-08-06T15:22:49;23.90;99.10
57833;DHT22;43667;53.036;6.740;2023-08-06T15:25:14;24.20;99.90
57833;DHT22;43667;53.036;6.740;2023-08-06T15:27:40;24.50;99.90
57833;DHT22;43667;53.036;6.740;2023-08-06T15:30:06;24.20;99.90
57833;DHT22;43667;53.036;6.740;2023-08-06T15:32:32;24.10;99.90
57833;DHT22;43667;53.036;6.740;2023-08-06T15:34:58;24.30;99.90
57833;DHT22;43667;53.036;6.740;2023-08-06T15:37:24;23.80;96.80
57833;DHT22;43667;53.036;6.740;2023-08-06T15:39:51;24.10;99.90
57833;DHT22;43667;53.036;6.740;2023-08-06T15:42:16;23.90;92.00
57833;DHT22;43667;53.036;6.740;2023-08-06T15:44:42;24.30;90.90
57833;DHT22;43667;53.036;6.740;2023-08-06T15:47:08;24.60;93.30
57833;DHT22;43667;53.036;6.740;2023-08-06T15:49:34;25.00;93.40
57833;DHT22;43667;53.036;6.740;2023-08-06T15:52:00;25.10;92.30
57833;DHT22;43667;53.036;6.740;2023-08-06T15:54:25;25.50;92.40
57833;DHT22;43667;53.036;6.740;2023-08-06T15:56:51;25.80;92.10
57833;DHT22;43667;53.036;6.740;2023-08-06T15:59:21;26.30;89.40
57833;DHT22;43667;53.036;6.740;2023-08-06T16:01:47;26.90;83.30
57833;DHT22;43667;53.036;6.740;2023-08-06T16:04:13;27.10;84.00
57833;DHT22;43667;53.036;6.740;2023-08-06T16:06:38;27.60;80.60
57833;DHT22;43667;53.036;6.740;2023-08-06T16:09:04;27.80;79.50
57833;DHT22;43667;53.036;6.740;2023-08-06T16:11:29;27.20;81.80
57833;DHT22;43667;53.036;6.740;2023-08-06T16:13:55;26.40;86.90
57833;DHT22;43667;53.036;6.740;2023-08-06T16:16:21;26.10;91.30
57833;DHT22;43667;53.036;6.740;2023-08-06T16:18:46;25.50;91.70
57833;DHT22;43667;53.036;6.740;2023-08-06T16:21:12;24.90;95.00
57833;DHT22;43667;53.036;6.740;2023-08-06T16:23:38;24.40;95.60
57833;DHT22;43667;53.036;6.740;2023-08-06T16:26:04;24.30;97.10
57833;DHT22;43667;53.036;6.740;2023-08-06T16:28:29;24.00;98.70
57833;DHT22;43667;53.036;6.740;2023-08-06T16:30:55;24.50;98.40
57833;DHT22;43667;53.036;6.740;2023-08-06T16:33:21;24.40;96.90
57833;DHT22;43667;53.036;6.740;2023-08-06T16:35:46;24.40;96.80
57833;DHT22;43667;53.036;6.740;2023-08-06T16:38:13;23.80;98.20
57833;DHT22;43667;53.036;6.740;2023-08-06T16:40:38;23.60;99.50
57833;DHT22;43667;53.036;6.740;2023-08-06T16:43:04;23.30;99.90
57833;DHT22;43667;53.036;6.740;2023-08-06T16:45:30;23.30;99.90
57833;DHT22;43667;53.036;6.740;2023-08-06T16:47:56;22.80;99.90
57833;DHT22;43667;53.036;6.740;2023-08-06T16:52:48;22.40;96.80
57833;DHT22;43667;53.036;6.740;2023-08-06T16:55:13;22.60;96.50